Time;durP1;ratioP1;P1;durP2;ratioP2;P2;SDS_P1;SDS_P2;PMS_P1;PMS_P2;Temp;Humidity;BMP_temperature;BMP_pressure;BME280_temperature;BME280_humidity;BME280_pressure;Samples;Min_cycle;Max_cycle;Signal;HPM_P1;HPM_P2
2022/07/07 05:40:17;;;;;;;;;4.67;4.67;;;;;21.88;49.98;102145.28;5006796;28;45840;-78
2022/07/07 05:42:42;;;;;;;;;3.00;3.00;;;;;21.98;50.34;102140.84;5002317;28;45822;-78
2022/07/07 05:45:08;;;;;;;;;3.33;3.33;;;;;22.20;50.17;102149.94;5002979;28;46491;-79
2022/07/07 05:47:33;;;;;;;;;4.00;3.00;;;;;22.45;49.61;102146.06;4994383;28;45489;-82
2022/07/07 05:49:59;;;;;;;;;5.00;5.00;;;;;22.70;49.52;102137.75;5006197;28;46927;-83
2022/07/07 05:52:24;;;;;;;;;2.33;2.33;;;;;22.99;49.35;102131.72;4993190;28;45432;-85
2022/07/07 05:54:49;;;;;;;;;3.00;2.67;;;;;23.27;48.65;102142.88;5006607;28;46571;-85
2022/07/07 05:57:15;;;;;;;;;3.00;3.00;;;;;23.52;48.33;102138.06;5006979;28;49992;-85
2022/07/07 05:59:41;;;;;;;;;3.67;3.33;;;;;23.80;48.21;102149.19;4994535;28;46074;-85
2022/07/07 06:02:06;;;;;;;;;4.00;3.00;;;;;24.05;47.83;102149.69;5006201;28;45482;-86
2022/07/07 06:04:31;;;;;;;;;2.33;2.33;;;;;24.28;47.21;102154.94;5004378;28;45321;-88
2022/07/07 06:06:57;;;;;;;;;4.00;4.00;;;;;24.50;46.79;102158.38;5006757;28;45436;-81
2022/07/07 06:09:23;;;;;;;;;3.00;3.00;;;;;24.69;46.49;102152.13;5010969;28;45411;-83
2022/07/07 06:11:49;;;;;;;;;5.00;3.33;;;;;24.88;46.05;102153.16;5002744;28;45411;-87
2022/07/07 06:14:14;;;;;;;;;4.00;4.00;;;;;25.03;45.93;102159.00;5003162;28;45818;-88
2022/07/07 06:16:41;;;;;;;;;2.00;2.00;;;;;25.18;45.57;102153.97;5011271;28;45340;-85
2022/07/07 06:19:08;;;;;;;;;3.00;3.00;;;;;25.31;45.75;102156.38;4997540;28;45779;-86
2022/07/07 06:21:34;;;;;;;;;3.00;3.00;;;;;25.41;45.25;102157.22;4992497;28;45510;-86
2022/07/07 06:23:59;;;;;;;;;4.33;2.00;;;;;25.53;45.22;102163.31;5009829;28;45521;-89
2022/07/07 06:26:25;;;;;;;;;4.00;2.00;;;;;25.65;44.71;102164.03;5011135;28;45876;-91
2022/07/07 06:28:50;;;;;;;;;4.00;4.00;;;;;25.75;44.47;102169.44;5009162;28;45590;-86
2022/07/07 06:31:15;;;;;;;;;3.67;3.67;;;;;25.82;44.37;102180.59;4999342;28;45436;-89
2022/07/07 06:33:41;;;;;;;;;3.33;3.33;;;;;25.83;43.76;102180.41;5010587;28;45485;-92
2022/07/07 06:36:07;;;;;;;;;5.00;4.67;;;;;25.82;43.99;102183.31;5004768;28;47082;-90
2022/07/07 06:38:32;;;;;;;;;4.00;4.00;;;;;25.91;44.08;102182.38;5013607;28;46282;-87
2022/07/07 06:40:58;;;;;;;;;8.00;4.00;;;;;25.99;44.00;102185.22;5024119;28;45477;-86
2022/07/07 06:43:24;;;;;;;;;3.33;3.33;;;;;26.12;43.70;102194.91;5026849;28;45594;-91
2022/07/07 06:45:50;;;;;;;;;4.00;2.00;;;;;26.21;43.41;102202.16;5025342;28;45511;-92
2022/07/07 06:48:15;;;;;;;;;4.67;3.00;;;;;26.30;42.99;102194.97;5024716;28;45631;-91
2022/07/07 06:50:41;;;;;;;;;3.33;3.33;;;;;26.40;43.09;102197.66;5017997;28;45564;-90
2022/07/07 06:53:06;;;;;;;;;3.00;3.00;;;;;26.51;43.36;102200.16;5017919;28;45393;-88
2022/07/07 06:55:31;;;;;;;;;1.00;1.00;;;;;26.62;42.59;102190.91;5011920;28;48957;-92
2022/07/07 06:57:57;;;;;;;;;5.00;3.67;;;;;26.72;42.56;102198.97;5015669;28;45438;-82
2022/07/07 07:00:22;;;;;;;;;3.00;3.00;;;;;26.83;42.38;102200.63;5014226;28;45473;-82
2022/07/07 07:02:48;;;;;;;;;4.33;4.00;;;;;26.90;42.30;102201.72;5011307;28;45366;-83
2022/07/07 07:05:15;;;;;;;;;3.00;3.00;;;;;26.94;42.06;102192.22;5012065;28;45429;-83
2022/07/07 07:07:41;;;;;;;;;3.67;3.67;;;;;27.02;41.97;102201.50;5012193;28;45578;-83
2022/07/07 07:10:07;;;;;;;;;5.00;5.00;;;;;27.06;42.04;102197.47;5013126;28;45337;-83
2022/07/07 07:12:32;;;;;;;;;5.00;3.00;;;;;27.11;41.23;102192.38;5013396;28;45537;-83
2022/07/07 07:14:58;;;;;;;;;3.33;3.33;;;;;27.16;41.21;102202.81;5010761;28;45645;-84
2022/07/07 07:17:23;;;;;;;;;4.00;4.00;;;;;27.20;41.86;102196.03;5014503;28;46302;-85
2022/07/07 07:19:48;;;;;;;;;3.00;3.00;;;;;27.26;41.32;102200.84;4995831;28;46271;-83
2022/07/07 07:22:14;;;;;;;;;3.00;3.00;;;;;27.34;40.79;102210.97;5013999;28;45492;-85
2022/07/07 07:24:39;;;;;;;;;2.33;2.33;;;;;27.36;41.15;102211.66;5011555;28;45527;-86
2022/07/07 07:27:05;;;;;;;;;3.00;2.00;;;;;27.42;41.23;102219.19;5014428;28;46138;-84
2022/07/07 07:29:30;;;;;;;;;4.00;2.67;;;;;27.46;41.15;102219.75;5009948;28;45502;-82
2022/07/07 07:31:55;;;;;;;;;4.67;4.67;;;;;27.51;40.95;102221.97;5012959;28;45398;-82
2022/07/07 07:34:21;;;;;;;;;2.33;2.33;;;;;27.55;40.84;102229.66;5009051;28;45576;-81
2022/07/07 07:36:46;;;;;;;;;3.00;2.33;;;;;27.61;40.13;102236.38;5006248;28;45496;-83
2022/07/07 07:39:11;;;;;;;;;3.00;3.00;;;;;27.66;39.91;102235.91;5012110;28;46052;-83
2022/07/07 07:41:38;;;;;;;;;3.67;3.33;;;;;27.69;40.16;102241.91;5008171;28;45500;-83
2022/07/07 07:44:03;;;;;;;;;5.00;2.67;;;;;27.73;39.94;102242.44;5012906;28;45571;-82
2022/07/07 07:46:29;;;;;;;;;3.67;3.33;;;;;27.72;39.97;102247.03;5006188;28;45444;-81
2022/07/07 07:48:54;;;;;;;;;4.00;4.00;;;;;27.72;39.93;102244.28;5006249;28;45530;-86
2022/07/07 07:51:19;;;;;;;;;3.67;3.33;;;;;27.75;39.72;102251.31;5010784;28;45811;-86
2022/07/07 07:53:45;;;;;;;;;3.00;3.00;;;;;27.75;40.46;102249.44;5007226;28;45507;-87
2022/07/07 07:56:11;;;;;;;;;3.33;2.00;;;;;27.77;40.43;102252.00;5012543;28;45409;-86
2022/07/07 07:58:36;;;;;;;;;5.33;4.00;;;;;27.78;39.97;102236.50;5009289;28;45555;-87
2022/07/07 08:01:03;;;;;;;;;3.33;3.00;;;;;27.81;40.20;102241.63;5010191;28;45604;-81
2022/07/07 08:03:28;;;;;;;;;6.00;4.00;;;;;27.83;39.85;102245.06;5007126;28;45437;-92
2022/07/07 08:05:53;;;;;;;;;3.00;3.00;;;;;27.86;39.73;102258.34;5011009;28;46298;-91
2022/07/07 08:08:19;;;;;;;;;2.00;2.00;;;;;27.88;40.17;102262.63;5011682;28;45410;-93
2022/07/07 08:10:44;;;;;;;;;2.00;2.00;;;;;27.91;39.29;102252.44;5007118;28;45514;-89
2022/07/07 08:13:09;;;;;;;;;3.00;3.00;;;;;27.93;39.39;102256.72;5009973;28;50962;-91
2022/07/07 08:15:35;;;;;;;;;3.00;3.00;;;;;27.94;39.15;102255.69;5013085;28;46570;-94
2022/07/07 08:18:00;;;;;;;;;2.67;2.67;;;;;27.98;39.33;102250.75;5012303;28;45552;-92
2022/07/07 08:20:26;;;;;;;;;2.67;2.67;;;;;27.98;39.27;102248.88;5004613;28;45534;-91
2022/07/07 08:22:51;;;;;;;;;3.00;3.00;;;;;28.01;39.79;102244.97;5011536;28;45409;-80
2022/07/07 08:25:17;;;;;;;;;2.00;2.00;;;;;28.02;39.86;102253.00;5011590;28;46161;-83
2022/07/07 08:27:42;;;;;;;;;1.67;1.67;;;;;28.02;39.50;102253.00;5008535;28;45390;-83
2022/07/07 08:30:08;;;;;;;;;4.00;4.00;;;;;28.04;39.62;102249.25;5007747;28;45479;-82
2022/07/07 08:32:34;;;;;;;;;3.33;3.33;;;;;28.05;39.68;102245.50;5006688;28;45614;-84
2022/07/07 08:34:59;;;;;;;;;2.00;2.00;;;;;28.06;39.21;102250.81;5010564;28;46086;-83
2022/07/07 08:37:24;;;;;;;;;3.00;3.00;;;;;28.08;39.33;102242.44;5012848;28;45340;-83
2022/07/07 08:39:50;;;;;;;;;3.33;3.33;;;;;28.10;39.08;102241.28;5011052;28;45460;-82
2022/07/07 08:42:16;;;;;;;;;3.00;3.00;;;;;28.11;39.21;102242.97;5011129;28;45541;-91
2022/07/07 08:44:42;;;;;;;;;2.00;2.00;;;;;28.14;39.21;102241.78;5012480;28;46257;-86
2022/07/07 08:47:08;;;;;;;;;3.00;3.00;;;;;28.09;39.78;102241.44;5013000;28;45472;-80
2022/07/07 08:49:33;;;;;;;;;2.00;2.00;;;;;28.08;39.74;102237.00;5010679;28;45872;-83
2022/07/07 08:51:58;;;;;;;;;2.67;2.67;;;;;28.09;39.55;102242.28;5012401;28;46093;-83
2022/07/07 08:54:26;;;;;;;;;4.00;2.67;;;;;28.09;38.90;102250.47;5011519;28;45552;-84
2022/07/07 08:56:53;;;;;;;;;3.00;2.33;;;;;28.05;39.60;102249.09;5011036;28;45528;-82
2022/07/07 08:59:18;;;;;;;;;1.00;1.00;;;;;28.02;39.54;102250.28;5010419;28;45532;-81
2022/07/07 09:01:56;;;;;;;;;2.67;2.67;;;;;27.97;39.66;102255.38;5012949;28;45452;-83
2022/07/07 09:04:21;;;;;;;;;2.67;2.67;;;;;27.93;39.56;102239.47;5010466;28;46322;-85
2022/07/07 09:07:01;;;;;;;;;4.33;3.00;;;;;27.88;39.53;102229.06;5008187;28;45400;-82
2022/07/07 09:09:39;;;;;;;;;3.00;3.00;;;;;27.87;39.71;102227.31;5010667;28;45465;-86
2022/07/07 09:12:06;;;;;;;;;2.00;2.00;;;;;27.95;39.72;102232.00;5007058;28;45597;-85
2022/07/07 09:14:40;;;;;;;;;2.00;1.67;;;;;27.96;39.65;102237.25;5012115;28;45433;-81
2022/07/07 09:17:27;;;;;;;;;1.67;1.67;;;;;28.02;39.27;102242.09;5009807;28;45381;-81
2022/07/07 09:20:04;;;;;;;;;2.00;2.00;;;;;28.10;39.06;102244.00;5007009;28;45346;-80
2022/07/07 09:22:53;;;;;;;;;2.33;2.00;;;;;28.11;39.63;102229.31;5010694;28;45364;-80
2022/07/07 09:25:23;;;;;;;;;2.00;2.00;;;;;28.11;39.44;102239.38;5008552;28;46378;-80
2022/07/07 09:28:00;;;;;;;;;2.33;2.33;;;;;28.03;39.01;102237.47;5007163;28;45479;-81
2022/07/07 09:30:38;;;;;;;;;2.00;2.00;;;;;28.01;39.09;102239.53;5006475;28;45445;-82
2022/07/07 09:33:10;;;;;;;;;2.67;2.00;;;;;27.93;39.55;102248.53;4998578;28;45560;-80
2022/07/07 09:38:25;;;;;;;;;3.00;3.00;;;;;27.91;39.40;102245.09;5002757;28;45443;-80
2022/07/07 09:41:01;;;;;;;;;3.00;3.00;;;;;27.91;40.08;102250.53;5008763;28;45322;-83
2022/07/07 09:43:28;;;;;;;;;4.00;3.00;;;;;27.96;40.01;102247.34;5011561;28;45945;-80
2022/07/07 09:46:12;;;;;;;;;2.00;2.00;;;;;28.04;38.99;102255.59;5005681;28;46330;-84
2022/07/07 09:48:39;;;;;;;;;2.33;2.33;;;;;28.11;39.44;102244.84;5003556;28;45810;-85
2022/07/07 09:51:17;;;;;;;;;2.33;2.33;;;;;28.20;39.12;102259.41;5006463;28;45963;-78
2022/07/07 09:54:01;;;;;;;;;4.67;2.00;;;;;28.20;38.87;102252.03;5006370;28;45517;-82
2022/07/07 09:56:27;;;;;;;;;3.00;1.33;;;;;28.26;39.47;102256.91;5009278;28;46206;-76
2022/07/07 09:58:53;;;;;;;;;2.67;1.67;;;;;28.28;38.94;102252.13;5008429;28;45568;-78
2022/07/07 10:01:24;;;;;;;;;2.00;2.00;;;;;28.33;38.74;102258.97;5011026;28;45408;-76
2022/07/07 10:03:52;;;;;;;;;3.00;2.00;;;;;28.37;38.85;102266.66;5012223;28;45380;-77
2022/07/07 10:06:17;;;;;;;;;2.00;2.00;;;;;28.40;38.81;102263.59;5006175;28;47002;-77
2022/07/07 10:08:44;;;;;;;;;2.00;2.00;;;;;28.46;38.82;102264.81;5012277;28;45344;-76
2022/07/07 10:11:13;;;;;;;;;2.00;2.00;;;;;28.51;39.04;102275.22;5003498;28;45421;-77
2022/07/07 10:13:42;;;;;;;;;1.33;1.33;;;;;28.55;39.38;102271.16;5009508;28;45461;-77
2022/07/07 10:16:08;;;;;;;;;3.00;3.00;;;;;28.60;39.19;102287.06;4992487;28;47104;-77
2022/07/07 10:18:35;;;;;;;;;2.00;2.00;;;;;28.63;38.99;102281.25;5005085;28;45748;-76
2022/07/07 10:21:01;;;;;;;;;2.00;2.00;;;;;28.67;39.27;102288.09;5009170;28;45468;-76
2022/07/07 10:23:26;;;;;;;;;2.67;2.00;;;;;28.71;39.75;102289.47;5011958;28;45703;-79
2022/07/07 10:26:06;;;;;;;;;3.00;2.00;;;;;28.76;39.75;102292.56;5002004;28;45366;-78
2022/07/07 10:28:54;;;;;;;;;1.67;1.67;;;;;28.82;40.05;102298.38;5009106;28;45659;-77
2022/07/07 10:31:24;;;;;;;;;2.33;2.33;;;;;28.84;39.68;102308.09;5016754;28;45381;-79
2022/07/07 10:34:11;;;;;;;;;2.00;2.00;;;;;28.89;39.69;102307.66;4993456;28;45551;-80
2022/07/07 10:36:45;;;;;;;;;1.00;1.00;;;;;28.92;39.67;102318.22;5013242;28;46188;-77
2022/07/07 10:39:12;;;;;;;;;2.67;1.00;;;;;28.93;39.20;102317.19;5013040;28;45409;-89
2022/07/07 10:41:40;;;;;;;;;1.00;1.00;;;;;28.95;38.64;102319.78;5013923;28;45587;-86
2022/07/07 10:44:10;;;;;;;;;1.00;1.00;;;;;28.89;38.63;102333.09;5017236;28;45354;-85
2022/07/07 10:46:36;;;;;;;;;2.00;1.67;;;;;28.79;38.58;102338.69;5012898;28;46390;-86
2022/07/07 10:49:10;;;;;;;;;6.00;3.00;;;;;28.73;38.72;102336.59;5014146;28;45462;-92
2022/07/07 12:32:02;;;;;;;;;5.00;3.00;;;;;24.15;46.44;102372.19;5079079;27;45409;-88
2022/07/07 12:34:38;;;;;;;;;3.00;3.00;;;;;24.26;46.67;102374.81;5067963;27;45366;-89
2022/07/07 12:37:03;;;;;;;;;3.00;3.00;;;;;24.46;46.69;102380.34;5062385;28;45434;-90
2022/07/07 12:39:33;;;;;;;;;3.33;2.67;;;;;24.70;46.43;102387.31;5061408;28;45293;-90
2022/07/07 12:41:58;;;;;;;;;2.00;2.00;;;;;24.95;46.40;102383.28;5058871;27;46458;-89
2022/07/07 12:44:30;;;;;;;;;5.00;3.00;;;;;25.24;45.89;102389.78;5068338;27;49254;-88
2022/07/07 12:46:57;;;;;;;;;4.00;3.00;;;;;25.51;45.73;102388.25;5066130;27;45582;-90
2022/07/07 12:49:23;;;;;;;;;2.00;1.33;;;;;25.76;45.39;102392.25;5066255;27;46309;-88
2022/07/07 12:51:51;;;;;;;;;5.67;4.00;;;;;26.01;44.91;102391.81;5053451;27;45497;-90
2022/07/07 12:54:25;;;;;;;;;3.00;2.00;;;;;26.27;44.42;102388.50;5069207;28;45532;-92
2022/07/07 12:57:02;;;;;;;;;4.00;2.67;;;;;26.53;44.26;102396.03;5058241;27;45435;-94
2022/07/07 12:59:35;;;;;;;;;4.00;2.33;;;;;26.72;44.37;102405.13;5048358;28;45573;-92
2022/07/07 13:02:00;;;;;;;;;3.00;3.00;;;;;26.88;43.78;102393.56;5049616;28;45537;-90
2022/07/07 13:04:26;;;;;;;;;5.33;3.00;;;;;27.05;44.27;102390.06;5049596;28;46486;-93
2022/07/07 13:06:54;;;;;;;;;3.00;3.00;;;;;27.20;43.58;102398.56;5050840;28;45472;-93
2022/07/07 13:09:20;;;;;;;;;2.00;2.00;;;;;27.35;43.32;102401.63;5054766;27;45536;-92
2022/07/07 13:11:49;;;;;;;;;4.00;2.33;;;;;27.49;42.97;102402.97;5071268;28;47185;-90
2022/07/07 13:14:15;;;;;;;;;2.33;2.33;;;;;27.61;43.09;102410.94;5055975;27;45750;-89
2022/07/07 13:16:40;;;;;;;;;4.67;3.00;;;;;27.72;42.70;102416.13;5055749;28;46094;-90
2022/07/07 13:19:06;;;;;;;;;1.00;1.00;;;;;27.82;42.63;102418.78;5047746;28;45470;-85
2022/07/07 13:21:31;;;;;;;;;4.00;2.00;;;;;27.91;42.12;102414.25;5046968;27;46233;-88
2022/07/07 13:23:56;;;;;;;;;4.00;4.00;;;;;28.01;40.60;102430.53;5047210;27;47421;-89
2022/07/07 13:26:22;;;;;;;;;2.33;2.33;;;;;28.07;41.05;102418.16;5047846;27;45687;-87
2022/07/07 13:28:48;;;;;;;;;2.33;2.33;;;;;28.11;40.75;102431.31;5057763;28;45383;-92
2022/07/07 13:31:14;;;;;;;;;2.67;2.67;;;;;28.14;41.08;102436.44;5064682;27;46377;-93
2022/07/07 13:33:39;;;;;;;;;4.00;3.00;;;;;28.18;40.90;102433.38;5081096;27;45813;-92
2022/07/07 13:36:05;;;;;;;;;3.00;3.00;;;;;28.22;41.03;102437.50;5091480;27;45414;-93
2022/07/07 13:38:32;;;;;;;;;4.00;2.33;;;;;28.25;40.68;102429.03;5072871;27;45904;-91
2022/07/07 13:40:58;;;;;;;;;4.33;2.67;;;;;28.28;40.60;102432.31;5087852;27;45537;-94
2022/07/07 13:43:23;;;;;;;;;2.00;2.00;;;;;28.31;40.66;102431.13;5075459;27;45415;-92
2022/07/07 13:45:48;;;;;;;;;3.00;3.00;;;;;28.37;40.51;102435.09;5077729;28;45616;-90
2022/07/07 13:48:14;;;;;;;;;2.33;2.33;;;;;28.41;41.22;102439.22;5077709;27;45428;-91
2022/07/07 13:50:40;;;;;;;;;3.00;3.00;;;;;28.48;40.42;102440.28;5076620;28;46112;-89
2022/07/07 13:53:05;;;;;;;;;3.00;3.00;;;;;28.53;41.34;102437.91;5074010;27;45589;-86
2022/07/07 13:55:31;;;;;;;;;5.00;3.00;;;;;28.60;40.48;102435.41;5076000;28;45623;-87
2022/07/07 13:57:56;;;;;;;;;1.00;1.00;;;;;28.61;41.18;102441.72;5077733;28;45565;-93
2022/07/07 14:00:22;;;;;;;;;3.00;3.00;;;;;28.59;40.35;102450.06;5074082;28;46499;-89
2022/07/07 14:02:48;;;;;;;;;1.67;1.33;;;;;28.60;40.24;102456.41;5077338;28;45507;-86
2022/07/07 14:05:14;;;;;;;;;2.00;2.00;;;;;28.62;40.13;102463.41;5076694;28;45390;-91
2022/07/07 14:07:41;;;;;;;;;4.00;4.00;;;;;28.65;39.89;102467.69;5077171;28;45395;-88
2022/07/07 14:10:07;;;;;;;;;2.00;2.00;;;;;28.71;39.97;102471.63;5078567;28;46204;-96
2022/07/07 14:12:33;;;;;;;;;2.33;2.33;;;;;28.73;40.57;102466.88;5077962;28;45405;-91
2022/07/07 14:14:58;;;;;;;;;2.33;2.33;;;;;28.76;40.16;102472.88;5076953;28;45415;-92
2022/07/07 14:17:24;;;;;;;;;3.67;3.00;;;;;28.80;40.50;102466.06;5076587;28;46564;-90
2022/07/07 14:19:49;;;;;;;;;2.00;2.00;;;;;28.84;40.32;102469.31;5076395;28;45983;-92
2022/07/07 14:22:15;;;;;;;;;2.33;2.33;;;;;28.88;40.60;102473.47;5066503;27;45486;-87
2022/07/07 14:24:41;;;;;;;;;1.33;1.33;;;;;28.92;40.81;102474.88;5057994;28;45473;-92
2022/07/07 14:27:07;;;;;;;;;2.67;2.67;;;;;28.96;40.81;102467.19;5064845;28;45452;-91
2022/07/07 14:29:34;;;;;;;;;4.67;2.67;;;;;29.00;40.70;102463.13;5061259;28;46472;-93
2022/07/07 14:31:59;;;;;;;;;1.67;1.67;;;;;29.03;40.76;102461.94;5062990;28;45421;-92
2022/07/07 14:34:24;;;;;;;;;1.00;1.00;;;;;29.05;40.78;102458.00;5076157;28;45396;-92
2022/07/07 14:36:50;;;;;;;;;1.67;1.67;;;;;29.11;40.29;102456.50;5064866;28;45749;-90
2022/07/07 14:39:15;;;;;;;;;2.33;1.33;;;;;29.11;40.42;102455.63;5057514;28;47246;-90
2022/07/07 14:41:41;;;;;;;;;2.00;2.00;;;;;29.15;40.20;102463.34;5078639;28;45677;-94
2022/07/07 14:44:06;;;;;;;;;2.00;2.00;;;;;29.17;40.63;102455.81;5065992;28;45533;-88
2022/07/07 14:46:32;;;;;;;;;1.00;1.00;;;;;29.22;40.24;102463.50;5065337;28;45759;-94
2022/07/07 14:48:58;;;;;;;;;1.67;1.67;;;;;29.26;40.00;102458.59;5056309;28;46334;-92
2022/07/07 14:51:23;;;;;;;;;3.00;3.00;;;;;29.28;40.70;102459.28;5052539;28;45567;-91
2022/07/07 14:53:49;;;;;;;;;2.00;2.00;;;;;29.30;40.30;102458.09;5053948;28;45596;-92
2022/07/07 14:56:14;;;;;;;;;2.00;2.00;;;;;29.31;40.47;102454.31;5052574;28;45573;-89
2022/07/07 14:58:40;;;;;;;;;2.00;2.00;;;;;29.35;40.76;102460.34;5056288;28;45607;-93
2022/07/07 15:01:05;;;;;;;;;2.00;2.00;;;;;29.37;40.19;102454.66;5052635;28;45928;-86
2022/07/07 15:03:30;;;;;;;;;2.33;2.33;;;;;29.37;38.63;102458.28;5062229;28;45961;-86
2022/07/07 15:05:56;;;;;;;;;4.33;4.33;;;;;29.36;39.13;102461.16;5070496;28;45319;-86
2022/07/07 15:08:21;;;;;;;;;4.00;2.33;;;;;29.32;38.18;102460.66;5069488;28;46363;-80
2022/07/07 15:10:47;;;;;;;;;2.00;2.00;;;;;29.27;39.17;102463.91;5056481;28;45345;-85
2022/07/07 15:13:14;;;;;;;;;3.00;3.00;;;;;29.22;39.52;102468.97;5071603;28;45563;-83
2022/07/07 15:15:40;;;;;;;;;3.00;3.00;;;;;29.17;38.78;102468.63;5076218;28;45416;-82
2022/07/07 15:18:05;;;;;;;;;5.33;5.33;;;;;29.14;38.87;102463.50;5061384;28;46034;-84
2022/07/07 15:20:31;;;;;;;;;4.33;4.00;;;;;29.11;38.54;102469.28;5071270;28;47191;-79
2022/07/07 15:22:56;;;;;;;;;8.00;5.67;;;;;29.09;38.88;102465.88;5065605;28;45510;-81
2022/07/07 15:25:21;;;;;;;;;4.00;4.00;;;;;29.01;38.60;102467.56;5062663;28;45396;-81
2022/07/07 15:27:48;;;;;;;;;3.00;3.00;;;;;28.99;38.23;102460.53;5075679;28;45471;-81
2022/07/07 15:30:13;;;;;;;;;3.67;3.00;;;;;29.00;38.48;102460.38;5074291;28;45652;-81
2022/07/07 15:32:39;;;;;;;;;4.00;4.00;;;;;28.99;38.60;102464.13;5075756;28;45411;-81
2022/07/07 15:35:05;;;;;;;;;4.67;4.67;;;;;28.96;38.31;102464.47;5068909;27;45691;-80
2022/07/07 15:37:30;;;;;;;;;3.33;3.33;;;;;28.92;38.52;102463.94;5064068;28;46984;-77
2022/07/07 15:39:56;;;;;;;;;5.33;5.33;;;;;28.86;38.43;102456.38;5062271;28;45487;-83
2022/07/07 15:42:21;;;;;;;;;5.67;3.00;;;;;28.50;38.36;102462.84;5058830;28;45563;-79
2022/07/07 15:44:52;;;;;;;;;2.50;2.50;;;;;28.07;39.08;102462.66;5071051;28;45479;-79
2022/07/07 15:47:18;;;;;;;;;5.00;3.33;;;;;27.74;39.58;102465.97;5053334;28;47079;-78
2022/07/07 15:49:43;;;;;;;;;4.00;4.00;;;;;27.48;39.92;102469.41;5074059;27;45522;-79
2022/07/07 15:52:10;;;;;;;;;4.00;3.00;;;;;27.27;39.01;102466.09;5073757;28;45458;-81
2022/07/07 15:54:35;;;;;;;;;4.00;3.00;;;;;27.09;39.22;102470.50;5055812;28;45444;-80
2022/07/07 15:57:01;;;;;;;;;3.00;3.00;;;;;26.91;39.43;102470.41;5070245;28;45604;-80
2022/07/07 15:59:27;;;;;;;;;3.00;3.00;;;;;26.82;39.90;102480.31;5075600;28;45341;-82
2022/07/07 16:01:52;;;;;;;;;3.00;3.00;;;;;26.71;39.98;102480.50;5055355;28;45328;-83
2022/07/07 16:07:12;;;;;;;;;6.00;4.00;;;;;26.55;40.15;102486.56;5066078;28;46870;-82
2022/07/07 16:09:39;;;;;;;;;3.00;3.00;;;;;26.50;40.07;102497.91;5067173;28;45466;-83
2022/07/07 16:12:06;;;;;;;;;3.33;3.33;;;;;26.44;40.24;102487.59;5075497;28;45465;-83
2022/07/07 16:14:32;;;;;;;;;4.00;4.00;;;;;26.40;40.65;102502.53;5072521;28;45481;-83
2022/07/07 16:16:58;;;;;;;;;3.00;3.00;;;;;26.37;40.27;102498.22;5070859;27;45534;-83
2022/07/07 16:19:25;;;;;;;;;4.67;4.67;;;;;26.34;40.51;102498.50;5068851;28;45560;-83
2022/07/07 16:21:51;;;;;;;;;4.00;4.00;;;;;26.33;40.90;102504.97;5075210;28;45369;-83
2022/07/07 16:24:16;;;;;;;;;4.00;4.00;;;;;26.30;40.42;102494.34;5068685;28;45513;-81
2022/07/07 16:26:42;;;;;;;;;2.33;2.33;;;;;26.26;40.71;102499.25;5067895;27;45887;-81
2022/07/07 16:29:07;;;;;;;;;4.00;4.00;;;;;26.26;40.41;102492.94;5063995;28;45420;-81
2022/07/07 16:31:35;;;;;;;;;3.00;3.00;;;;;26.25;40.30;102489.38;5074792;28;45670;-80
2022/07/07 16:34:01;;;;;;;;;4.00;4.00;;;;;26.23;40.25;102494.03;5070330;28;45539;-82
2022/07/07 16:36:27;;;;;;;;;3.33;3.33;;;;;26.23;40.18;102482.31;5064345;28;45320;-83
2022/07/07 16:38:52;;;;;;;;;3.67;3.67;;;;;26.23;39.96;102496.78;5061665;28;47020;-81
2022/07/07 16:41:18;;;;;;;;;4.33;4.00;;;;;26.25;40.20;102486.66;5064695;28;45823;-81
2022/07/07 16:43:44;;;;;;;;;3.33;3.33;;;;;26.42;40.22;102497.78;5054866;28;45447;-81
2022/07/07 16:46:09;;;;;;;;;5.00;3.67;;;;;26.65;40.33;102492.00;5063962;28;45533;-81
2022/07/07 16:48:34;;;;;;;;;3.67;3.67;;;;;26.86;39.80;102494.53;5065274;27;45481;-81
2022/07/07 16:51:00;;;;;;;;;4.00;4.00;;;;;27.06;39.92;102489.03;5062760;28;45347;-81
2022/07/07 16:53:26;;;;;;;;;4.00;4.00;;;;;27.22;39.79;102491.94;5066776;28;45569;-82
2022/07/07 16:55:52;;;;;;;;;4.33;3.33;;;;;27.36;39.27;102482.41;5064084;28;46143;-82
2022/07/07 16:58:17;;;;;;;;;6.33;5.00;;;;;27.49;38.88;102494.81;5056553;28;45624;-82
2022/07/07 17:00:47;;;;;;;;;5.67;4.00;;;;;27.60;37.91;102491.91;5065794;28;45502;-82
2022/07/07 17:03:13;;;;;;;;;3.67;3.67;;;;;27.70;37.86;102488.22;5059769;28;45487;-81
2022/07/07 17:05:39;;;;;;;;;2.00;2.00;;;;;27.78;38.31;102490.19;5065083;28;46189;-81
2022/07/07 17:08:04;;;;;;;;;4.67;4.67;;;;;27.82;37.27;102502.50;5068045;28;45469;-81
2022/07/07 17:10:30;;;;;;;;;4.33;3.33;;;;;27.86;37.86;102504.78;5074387;28;45360;-82
2022/07/07 17:12:55;;;;;;;;;3.33;3.33;;;;;27.90;37.32;102507.19;5066591;28;45798;-82
2022/07/07 17:15:24;;;;;;;;;2.00;2.00;;;;;27.95;37.50;102511.16;5060886;27;46219;-82
2022/07/07 17:17:49;;;;;;;;;5.00;5.00;;;;;27.97;37.40;102511.00;5076306;28;45509;-84
2022/07/07 17:20:15;;;;;;;;;3.67;3.67;;;;;27.99;37.11;102515.28;5063208;28;45964;-84
2022/07/07 17:22:40;;;;;;;;;4.00;4.00;;;;;28.01;37.11;102515.16;5065392;28;45782;-85
2022/07/07 17:25:06;;;;;;;;;5.00;4.67;;;;;28.05;36.62;102519.28;5071881;28;45472;-84
2022/07/07 17:27:32;;;;;;;;;3.00;3.00;;;;;28.06;36.91;102520.13;5076674;28;45326;-84
2022/07/07 17:29:57;;;;;;;;;3.67;2.67;;;;;28.06;36.16;102518.25;5076371;28;45454;-84
2022/07/07 17:32:22;;;;;;;;;3.00;3.00;;;;;28.07;36.67;102521.84;5063866;28;45675;-85
2022/07/07 17:34:48;;;;;;;;;3.00;3.00;;;;;28.08;36.11;102526.28;5071868;28;45435;-84
2022/07/07 17:37:13;;;;;;;;;3.00;3.00;;;;;28.08;36.42;102516.22;5071456;28;45544;-84
2022/07/07 17:39:40;;;;;;;;;3.33;3.33;;;;;28.09;36.05;102517.09;5072020;28;45453;-84
2022/07/07 17:42:05;;;;;;;;;4.67;4.33;;;;;28.10;36.42;102524.25;5067253;28;45498;-84
2022/07/07 17:44:30;;;;;;;;;3.33;3.33;;;;;28.10;35.97;102525.13;5048942;28;47237;-84
2022/07/07 17:46:56;;;;;;;;;3.00;3.00;;;;;28.11;35.92;102523.22;5075488;28;45400;-84
2022/07/07 17:49:21;;;;;;;;;4.00;4.00;;;;;28.11;36.07;102513.19;5077040;27;45395;-84
2022/07/07 17:51:47;;;;;;;;;3.00;3.00;;;;;28.12;35.62;102531.25;5072161;28;45481;-84
2022/07/07 17:54:13;;;;;;;;;3.00;3.00;;;;;28.11;35.65;102521.38;5065113;28;45452;-84
2022/07/07 17:56:38;;;;;;;;;5.00;3.00;;;;;28.12;35.45;102530.44;5075302;27;45421;-85
2022/07/07 17:59:04;;;;;;;;;4.00;2.33;;;;;28.12;35.63;102535.88;5070482;28;45558;-86
2022/07/07 18:01:29;;;;;;;;;2.00;2.00;;;;;28.11;35.46;102536.88;5061232;28;45644;-84
2022/07/07 18:03:54;;;;;;;;;3.67;3.67;;;;;28.10;36.06;102527.84;5060991;27;46276;-87
2022/07/07 18:06:20;;;;;;;;;6.33;3.67;;;;;28.11;35.89;102540.47;5061871;28;45494;-87
2022/07/07 18:08:45;;;;;;;;;5.00;4.00;;;;;28.11;35.84;102543.22;5064268;28;45427;-86
2022/07/07 18:11:11;;;;;;;;;3.00;3.00;;;;;28.12;35.97;102539.47;5066640;27;45546;-86
2022/07/07 18:13:37;;;;;;;;;4.00;3.00;;;;;28.16;36.08;102548.22;5076210;28;46502;-86
2022/07/07 18:16:04;;;;;;;;;5.00;4.00;;;;;28.17;36.39;102543.59;5067004;28;45418;-86
2022/07/07 18:18:29;;;;;;;;;4.67;4.67;;;;;28.19;35.99;102552.50;5066570;28;45413;-86
2022/07/07 18:20:57;;;;;;;;;3.67;3.67;;;;;28.21;36.21;102550.47;5060040;27;45460;-86
2022/07/07 18:23:23;;;;;;;;;3.00;3.00;;;;;28.21;36.32;102564.97;5074732;27;45514;-86
2022/07/07 18:25:49;;;;;;;;;3.00;3.00;;;;;28.22;35.72;102561.22;5076811;28;45578;-85
2022/07/07 18:28:14;;;;;;;;;3.00;3.00;;;;;28.23;36.35;102564.78;5069453;28;45482;-86
2022/07/07 18:30:40;;;;;;;;;3.33;3.33;;;;;28.26;35.76;102567.25;5068244;28;45503;-85
2022/07/07 18:33:05;;;;;;;;;3.33;3.33;;;;;28.26;35.99;102575.44;5061770;28;45530;-86
2022/07/07 18:35:30;;;;;;;;;4.00;4.00;;;;;28.25;35.71;102576.47;5063647;28;45444;-85
2022/07/07 18:37:56;;;;;;;;;4.00;4.00;;;;;28.24;36.52;102583.78;5065346;27;45374;-85
2022/07/07 18:40:22;;;;;;;;;5.00;3.33;;;;;28.23;36.00;102571.13;5074493;28;45491;-85
2022/07/07 18:42:49;;;;;;;;;4.33;3.00;;;;;28.25;35.87;102585.50;5062917;28;47267;-86
2022/07/07 18:45:15;;;;;;;;;4.33;4.33;;;;;28.27;36.11;102588.94;5075286;28;45464;-85
2022/07/07 18:47:40;;;;;;;;;3.33;3.33;;;;;28.27;35.82;102593.53;5072981;28;45601;-85